Time;durP1;ratioP1;P1;durP2;ratioP2;P2;SDS_P1;SDS_P2;PMS_P1;PMS_P2;Temp;Humidity;BMP_temperature;BMP_pressure;BME280_temperature;BME280_humidity;BME280_pressure;Samples;Min_cycle;Max_cycle;Signal;HPM_P1;HPM_P2
2021/01/24 00:01:40;;;;;;;24.15;16.92;;;;;;;3.60;88.83;97970.28;4917657;29;20048;-83
2021/01/24 00:04:07;;;;;;;24.83;17.15;;;;;;;3.58;89.13;97960.84;4915917;29;20051;-84
2021/01/24 00:06:34;;;;;;;28.75;17.77;;;;;;;3.59;89.37;97958.13;4914181;29;20561;-82
2021/01/24 00:09:00;;;;;;;27.45;17.95;;;;;;;3.61;89.78;97958.03;4915965;29;20053;-80
2021/01/24 00:11:28;;;;;;;25.00;16.77;;;;;;;3.63;90.23;97954.38;4904736;29;20048;-84
2021/01/24 00:13:57;;;;;;;23.80;16.38;;;;;;;3.66;88.74;97959.44;4913051;29;20071;-83
2021/01/24 00:16:23;;;;;;;25.05;17.38;;;;;;;3.60;89.65;97944.13;4903647;29;20531;-83
2021/01/24 00:18:51;;;;;;;25.60;17.08;;;;;;;3.59;88.84;97952.91;4918264;29;20055;-80
2021/01/24 00:21:17;;;;;;;25.70;17.77;;;;;;;3.55;89.72;97950.53;4921071;29;20068;-82
2021/01/24 00:23:43;;;;;;;26.67;17.98;;;;;;;3.53;90.23;97941.00;4919968;29;20473;-83
2021/01/24 00:26:09;;;;;;;25.48;16.40;;;;;;;3.57;90.55;97939.06;4912476;29;20052;-80
2021/01/24 00:28:36;;;;;;;25.00;17.35;;;;;;;3.58;90.87;97945.13;4916572;29;20063;-82
2021/01/24 00:31:02;;;;;;;27.30;17.70;;;;;;;3.57;90.45;97936.44;4915973;29;20107;-82
2021/01/24 00:33:29;;;;;;;26.30;16.45;;;;;;;3.52;90.38;97941.09;4919598;29;20060;-82
2021/01/24 00:35:55;;;;;;;26.25;16.65;;;;;;;3.56;90.35;97937.38;4921243;29;20051;-84
2021/01/24 00:38:22;;;;;;;24.25;16.23;;;;;;;3.58;90.49;97943.34;4917139;29;20110;-82
2021/01/24 00:40:48;;;;;;;21.20;14.48;;;;;;;3.59;90.24;97938.97;4922555;29;20054;-82
2021/01/24 00:43:15;;;;;;;21.65;14.18;;;;;;;3.57;90.41;97932.97;4928351;29;20116;-84
2021/01/24 00:45:42;;;;;;;23.50;15.20;;;;;;;3.51;90.57;97929.78;4942932;29;20044;-84
2021/01/24 00:48:09;;;;;;;21.25;13.90;;;;;;;3.54;90.48;97939.22;4930872;29;20066;-83
2021/01/24 00:50:35;;;;;;;21.98;13.25;;;;;;;3.51;91.18;97931.53;4919527;29;20040;-86
2021/01/24 00:53:01;;;;;;;17.13;12.82;;;;;;;3.49;90.79;97928.16;4938752;29;20044;-82
2021/01/24 00:55:28;;;;;;;18.67;12.10;;;;;;;3.52;90.84;97928.00;4922730;29;20051;-85
2021/01/24 00:57:54;;;;;;;16.85;12.43;;;;;;;3.49;90.68;97928.16;4917925;29;20036;-83
2021/01/24 01:00:21;;;;;;;18.80;12.95;;;;;;;3.53;91.39;97933.16;4933935;29;20048;-83
2021/01/24 01:02:47;;;;;;;17.27;12.43;;;;;;;3.48;91.35;97922.09;4898431;29;20060;-82
2021/01/24 01:05:14;;;;;;;15.50;11.48;;;;;;;3.47;91.64;97920.41;4924385;29;20044;-84
2021/01/24 01:07:40;;;;;;;17.90;11.70;;;;;;;3.48;91.73;97923.88;4918435;29;20082;-81
2021/01/24 01:10:07;;;;;;;18.40;11.70;;;;;;;3.51;92.27;97928.94;4913116;29;20048;-83
2021/01/24 01:12:34;;;;;;;12.00;8.57;;;;;;;3.49;91.83;97918.56;4916585;29;20074;-82
2021/01/24 01:15:00;;;;;;;13.32;9.30;;;;;;;3.55;92.08;97925.22;4919091;29;20385;-82
2021/01/24 01:17:27;;;;;;;13.73;9.35;;;;;;;3.57;91.70;97925.97;4913503;29;20439;-82
2021/01/24 01:19:54;;;;;;;13.00;8.15;;;;;;;3.56;92.44;97924.28;4900101;29;20179;-82
2021/01/24 01:22:20;;;;;;;12.10;7.38;;;;;;;3.55;92.83;97925.22;4918940;29;20064;-84
2021/01/24 01:24:46;;;;;;;8.27;6.60;;;;;;;3.59;92.40;97937.19;4907929;29;20060;-83
2021/01/24 01:27:13;;;;;;;5.93;4.50;;;;;;;3.57;91.45;97931.22;4920233;29;20414;-84
2021/01/24 01:29:39;;;;;;;4.80;4.00;;;;;;;3.49;90.80;97928.16;4925233;29;20062;-83
2021/01/24 01:32:06;;;;;;;4.93;4.35;;;;;;;3.49;90.61;97933.41;4927230;29;20048;-82
2021/01/24 01:34:32;;;;;;;4.93;4.03;;;;;;;3.44;90.66;97928.47;4924550;29;20052;-83
2021/01/24 01:36:58;;;;;;;3.28;2.97;;;;;;;3.40;90.68;97929.56;4930475;29;20130;-84
2021/01/24 01:39:25;;;;;;;4.22;2.60;;;;;;;3.36;90.29;97937.66;4917711;29;20063;-85
2021/01/24 01:41:51;;;;;;;2.35;2.15;;;;;;;3.31;90.86;97937.91;4914485;29;20044;-85
2021/01/24 01:44:18;;;;;;;2.17;1.80;;;;;;;3.22;89.83;97940.22;4919651;29;20082;-85
2021/01/24 01:46:44;;;;;;;1.92;1.63;;;;;;;3.10;90.26;97936.53;4920658;29;20066;-84
2021/01/24 01:49:11;;;;;;;1.45;1.35;;;;;;;3.00;90.26;97933.56;4935308;29;20490;-81
2021/01/24 01:51:37;;;;;;;1.35;1.25;;;;;;;2.93;90.25;97940.06;4929557;29;20052;-81
2021/01/24 01:54:05;;;;;;;2.08;1.10;;;;;;;2.80;90.11;97949.53;4911864;29;20535;-83
2021/01/24 01:56:31;;;;;;;0.93;0.90;;;;;;;2.73;90.23;97943.78;4929381;29;20059;-83
2021/01/24 01:58:58;;;;;;;1.63;1.13;;;;;;;2.67;90.29;97941.50;4921209;29;20082;-81
2021/01/24 02:01:36;;;;;;;3.33;1.15;;;;;;;2.66;90.42;97950.28;4912255;29;20052;-83
2021/01/24 02:04:09;;;;;;;1.10;1.00;;;;;;;2.59;90.19;97945.44;4918841;29;20490;-83
2021/01/24 02:06:47;;;;;;;1.42;1.10;;;;;;;2.65;90.78;97950.34;4909455;29;20052;-83
2021/01/24 02:09:24;;;;;;;1.02;0.98;;;;;;;2.58;91.36;97941.97;4912053;29;20056;-82
2021/01/24 02:12:09;;;;;;;1.23;1.13;;;;;;;2.56;91.37;97943.00;4920012;29;20071;-82
2021/01/24 02:14:48;;;;;;;0.82;0.82;;;;;;;2.58;91.21;97947.22;4919389;29;20048;-82
2021/01/24 02:17:17;;;;;;;1.10;1.00;;;;;;;2.46;90.79;97935.66;4903901;29;20052;-83
2021/01/24 02:19:57;;;;;;;0.90;0.90;;;;;;;2.43;90.96;97943.66;4903938;29;20390;-81
2021/01/24 02:22:27;;;;;;;0.90;0.80;;;;;;;2.26;91.17;97954.13;4930783;29;20131;-81
2021/01/24 02:25:12;;;;;;;0.70;0.70;;;;;;;2.09;91.64;97954.16;4933624;29;20072;-82
2021/01/24 02:27:48;;;;;;;0.93;0.63;;;;;;;1.94;92.59;97953.19;4937520;29;20103;-83
2021/01/24 02:30:33;;;;;;;0.77;0.70;;;;;;;1.90;92.69;97948.19;4931101;29;20036;-83
2021/01/24 02:33:08;;;;;;;0.70;0.70;;;;;;;1.75;92.67;97944.59;4938595;29;20117;-80
2021/01/24 02:35:40;;;;;;;0.80;0.77;;;;;;;1.60;93.27;97959.25;4931084;29;20075;-79
2021/01/24 02:38:08;;;;;;;1.65;0.80;;;;;;;1.56;93.20;97956.91;4923806;29;20052;-81
2021/01/24 02:40:38;;;;;;;0.95;0.85;;;;;;;1.55;94.35;97952.59;4920104;29;20143;-80
2021/01/24 02:43:07;;;;;;;1.25;0.90;;;;;;;1.60;94.39;97959.25;4936027;29;20071;-79
2021/01/24 02:45:35;;;;;;;1.10;0.95;;;;;;;1.70;93.60;97957.91;4915014;29;20056;-80
2021/01/24 02:48:04;;;;;;;1.60;0.90;;;;;;;1.74;93.25;97963.78;4922283;29;20067;-81
2021/01/24 02:50:31;;;;;;;0.98;0.90;;;;;;;1.70;92.97;97964.88;4922470;29;20339;-82
2021/01/24 02:52:59;;;;;;;0.90;0.90;;;;;;;1.72;92.84;97966.50;4913739;29;20152;-81
2021/01/24 02:55:27;;;;;;;1.08;1.00;;;;;;;1.68;92.46;97962.34;4923347;29;20048;-81
2021/01/24 02:57:56;;;;;;;0.95;0.95;;;;;;;1.64;92.75;97968.63;4924435;29;20060;-80
2021/01/24 03:00:24;;;;;;;1.00;1.00;;;;;;;1.54;93.46;97972.63;4905943;29;20056;-81
2021/01/24 03:02:51;;;;;;;1.20;1.10;;;;;;;1.48;93.87;97974.66;4904184;29;20051;-81
2021/01/24 03:05:18;;;;;;;1.42;1.33;;;;;;;1.37;94.32;97977.81;4918583;29;20867;-81
2021/01/24 03:07:46;;;;;;;1.60;1.50;;;;;;;1.32;94.00;97978.03;4901949;29;20060;-80
2021/01/24 03:10:13;;;;;;;1.83;1.60;;;;;;;1.29;94.33;97982.53;4905645;29;20112;-81
2021/01/24 03:13:13;;;;;;;1.95;1.45;;;;;;;1.36;94.20;97991.75;4920405;29;20744;-81
2021/01/24 03:15:40;;;;;;;2.10;1.83;;;;;;;1.34;93.98;97997.03;4903176;29;20059;-81
2021/01/24 03:18:10;;;;;;;2.35;1.92;;;;;;;1.31;94.15;97991.13;4911714;29;20045;-80
2021/01/24 03:20:40;;;;;;;2.00;1.80;;;;;;;1.28;93.68;97988.66;4918677;29;20362;-80
2021/01/24 03:23:08;;;;;;;2.55;2.30;;;;;;;1.26;94.31;98000.94;4921091;29;25510;-81
2021/01/24 03:25:38;;;;;;;2.60;2.35;;;;;;;1.27;94.63;97989.56;4892910;29;20064;-80
2021/01/24 03:28:07;;;;;;;3.38;2.33;;;;;;;1.20;94.83;97991.66;4933009;29;20048;-81
2021/01/24 03:30:34;;;;;;;3.03;2.50;;;;;;;1.17;95.43;98001.38;4922393;29;20083;-81
2021/01/24 03:33:03;;;;;;;3.92;2.75;;;;;;;1.19;95.78;98009.97;4902996;29;20044;-80
2021/01/24 03:35:29;;;;;;;3.08;2.78;;;;;;;1.22;96.04;98009.81;4917708;29;20060;-80
2021/01/24 03:37:56;;;;;;;4.90;3.05;;;;;;;1.27;95.96;98015.66;4914340;29;20052;-80
2021/01/24 03:40:22;;;;;;;3.97;2.42;;;;;;;1.30;95.99;98028.53;4920474;29;20060;-81
2021/01/24 03:42:49;;;;;;;4.57;2.88;;;;;;;1.34;96.33;98038.75;4897033;29;20071;-81
2021/01/24 03:45:15;;;;;;;4.38;3.10;;;;;;;1.42;95.98;98047.06;4918939;29;20072;-81
2021/01/24 03:47:42;;;;;;;3.92;3.05;;;;;;;1.42;95.79;98037.56;4903587;29;20363;-81
2021/01/24 03:50:09;;;;;;;6.00;3.60;;;;;;;1.42;95.99;98049.66;4905198;29;20091;-81
2021/01/24 03:52:35;;;;;;;7.18;3.75;;;;;;;1.50;95.93;98049.31;4919767;29;20052;-81
2021/01/24 03:55:04;;;;;;;4.20;3.38;;;;;;;1.55;95.84;98049.94;4912109;29;20052;-82
2021/01/24 03:57:30;;;;;;;4.05;3.42;;;;;;;1.59;95.70;98050.63;4915112;29;20163;-82
2021/01/24 03:59:57;;;;;;;5.07;3.72;;;;;;;1.62;95.28;98050.47;4932102;29;20119;-81
2021/01/24 04:02:23;;;;;;;5.40;4.20;;;;;;;1.60;95.39;98055.78;4923879;29;20048;-81
2021/01/24 04:04:50;;;;;;;4.75;3.83;;;;;;;1.66;95.64;98050.28;4926850;29;20062;-81
2021/01/24 04:07:16;;;;;;;5.45;4.15;;;;;;;1.69;95.63;98054.50;4926233;29;20056;-81
2021/01/24 04:09:43;;;;;;;4.15;3.22;;;;;;;1.68;95.70;98058.88;4911223;29;20096;-81
2021/01/24 04:12:10;;;;;;;4.22;3.28;;;;;;;1.80;94.83;98067.00;4915050;29;20108;-81
2021/01/24 04:14:37;;;;;;;4.32;3.25;;;;;;;1.71;95.12;98066.56;4916605;29;20072;-82
2021/01/24 04:17:04;;;;;;;2.40;2.15;;;;;;;1.75;95.34;98067.22;4928817;29;20051;-83
2021/01/24 04:19:31;;;;;;;2.55;2.15;;;;;;;1.81;95.30;98072.16;4929216;29;20055;-81
2021/01/24 04:21:57;;;;;;;2.55;2.20;;;;;;;1.85;95.01;98071.09;4934368;29;20048;-83
2021/01/24 04:24:26;;;;;;;2.90;2.60;;;;;;;1.76;94.66;98077.59;4929145;29;20052;-82
2021/01/24 04:26:53;;;;;;;2.40;1.90;;;;;;;1.81;94.96;98084.34;4934695;29;20040;-82
2021/01/24 04:29:19;;;;;;;3.20;1.75;;;;;;;1.78;94.72;98085.34;4926103;29;20058;-82
2021/01/24 04:31:46;;;;;;;1.92;1.40;;;;;;;1.77;94.36;98079.28;4932767;29;20107;-82
2021/01/24 04:34:13;;;;;;;1.55;0.95;;;;;;;1.83;93.06;98090.34;4934037;29;20044;-81
2021/01/24 04:36:40;;;;;;;1.10;0.80;;;;;;;1.84;92.36;98100.72;4925214;29;20052;-83
2021/01/24 04:39:07;;;;;;;0.90;0.60;;;;;;;1.81;92.13;98100.00;4927614;29;20054;-80
2021/01/24 04:41:36;;;;;;;1.70;0.60;;;;;;;1.74;92.50;98096.84;4924631;29;20056;-80
2021/01/24 04:44:04;;;;;;;3.05;0.80;;;;;;;1.73;92.40;98114.25;4911199;29;20056;-82
2021/01/24 04:46:31;;;;;;;1.63;1.20;;;;;;;1.72;92.72;98110.00;4916635;29;20058;-81
2021/01/24 04:49:00;;;;;;;0.98;0.90;;;;;;;1.72;93.15;98117.81;4918080;29;20063;-81
2021/01/24 04:51:27;;;;;;;2.03;1.00;;;;;;;1.76;93.21;98124.56;4916514;29;20048;-80
2021/01/24 04:53:53;;;;;;;1.00;0.90;;;;;;;1.73;93.33;98129.91;4930076;29;20040;-80
2021/01/24 04:56:20;;;;;;;1.15;0.93;;;;;;;1.70;93.01;98124.88;4914785;29;20075;-81
2021/01/24 04:58:48;;;;;;;2.10;1.35;;;;;;;1.63;92.97;98126.06;4915396;29;20055;-81
2021/01/24 05:01:16;;;;;;;1.83;1.30;;;;;;;1.64;93.37;98139.94;4918761;29;20060;-81
2021/01/24 05:03:43;;;;;;;2.53;1.70;;;;;;;1.56;93.70;98134.25;4916034;29;20063;-81
2021/01/24 05:06:10;;;;;;;1.92;1.58;;;;;;;1.56;94.14;98145.53;4927451;29;20044;-83
2021/01/24 05:08:36;;;;;;;1.58;1.17;;;;;;;1.66;93.64;98145.94;4909991;29;20063;-80
2021/01/24 05:11:07;;;;;;;1.30;1.20;;;;;;;1.65;93.23;98139.03;4903058;29;20048;-80
2021/01/24 05:13:34;;;;;;;2.30;1.17;;;;;;;1.64;93.64;98140.78;4928353;29;20170;-82
2021/01/24 05:16:00;;;;;;;2.28;1.50;;;;;;;1.62;94.03;98145.22;4925833;29;20052;-81
2021/01/24 05:18:27;;;;;;;2.15;1.73;;;;;;;1.63;93.58;98149.53;4921616;29;20067;-81
2021/01/24 05:20:53;;;;;;;1.92;1.67;;;;;;;1.64;93.75;98159.06;4919287;29;20150;-81
2021/01/24 05:23:24;;;;;;;2.15;1.67;;;;;;;1.56;93.97;98149.91;4915388;29;20057;-81
2021/01/24 05:25:54;;;;;;;;;;;;;;;1.59;94.29;98158.41;4902053;29;20545;-82
2021/01/24 05:28:28;;;;;;;2.77;2.23;;;;;;;1.57;94.65;98160.28;4907352;29;19939;-80
2021/01/24 05:31:05;;;;;;;3.40;2.40;;;;;;;1.59;94.38;98168.84;4920326;29;20048;-81
2021/01/24 05:33:32;;;;;;;2.53;2.08;;;;;;;1.63;94.42;98169.56;4913994;29;20048;-82
2021/01/24 05:35:58;;;;;;;2.35;2.15;;;;;;;1.65;94.40;98167.72;4896608;29;20056;-80
2021/01/24 05:38:32;;;;;;;3.78;2.70;;;;;;;1.62;94.41;98160.03;4904616;29;20067;-81
2021/01/24 05:41:00;;;;;;;4.95;2.70;;;;;;;1.69;94.20;98174.50;4908748;29;20052;-81
2021/01/24 05:43:33;;;;;;;2.75;2.47;;;;;;;1.66;93.52;98170.28;4901262;29;20048;-80
2021/01/24 05:45:59;;;;;;;3.67;3.03;;;;;;;1.62;93.71;98176.53;4923847;29;20489;-80
2021/01/24 05:48:26;;;;;;;3.00;2.58;;;;;;;1.64;93.72;98182.53;4922813;29;20052;-80
2021/01/24 05:50:52;;;;;;;4.10;2.42;;;;;;;1.59;93.66;98184.50;4908288;29;20079;-81
2021/01/24 05:53:19;;;;;;;3.75;2.47;;;;;;;1.60;93.49;98193.16;4926078;29;20063;-81
2021/01/24 05:55:45;;;;;;;5.20;3.17;;;;;;;1.59;94.34;98184.50;4922871;29;20149;-80
2021/01/24 05:58:24;;;;;;;4.15;3.00;;;;;;;1.56;94.09;98196.88;4908096;29;20044;-83
2021/01/24 06:00:52;;;;;;;5.85;3.22;;;;;;;1.55;94.22;98203.00;4927830;29;20044;-81
2021/01/24 06:03:20;;;;;;;6.97;4.00;;;;;;;1.53;94.96;98197.84;4908329;29;20060;-83
2021/01/24 06:05:47;;;;;;;5.38;3.58;;;;;;;1.60;94.60;98199.25;4913279;29;20052;-81
2021/01/24 06:08:15;;;;;;;6.05;4.00;;;;;;;1.61;94.40;98197.47;4925630;29;20068;-80
2021/01/24 06:10:43;;;;;;;6.32;4.13;;;;;;;1.55;94.41;98208.22;4924731;29;20052;-81
2021/01/24 06:13:17;;;;;;;6.18;4.45;;;;;;;1.55;94.47;98221.25;4923296;29;20056;-82
2021/01/24 06:15:44;;;;;;;5.90;4.10;;;;;;;1.55;94.90;98216.88;4904913;29;20071;-81
2021/01/24 06:18:15;;;;;;;7.15;4.55;;;;;;;1.52;94.46;98214.41;4932110;29;20048;-81
2021/01/24 06:20:53;;;;;;;5.43;4.45;;;;;;;1.49;94.74;98211.94;4924047;29;20045;-81
2021/01/24 06:23:29;;;;;;;7.80;5.70;;;;;;;1.46;95.08;98219.03;4917047;29;20060;-82
2021/01/24 06:26:06;;;;;;;6.13;4.43;;;;;;;1.50;95.02;98220.59;4933586;29;20052;-80
2021/01/24 06:28:36;;;;;;;8.90;6.15;;;;;;;1.46;95.04;98221.66;4914645;29;20037;-80
2021/01/24 06:31:04;;;;;;;8.40;5.45;;;;;;;1.44;95.08;98226.06;4927545;29;20048;-79
2021/01/24 06:33:30;;;;;;;8.68;5.60;;;;;;;1.48;95.11;98233.72;4934093;29;20044;-79
2021/01/24 06:36:00;;;;;;;9.65;6.03;;;;;;;1.48;94.98;98223.28;4939488;29;20055;-81
2021/01/24 06:38:33;;;;;;;10.05;5.47;;;;;;;1.50;94.56;98224.06;4943574;29;20052;-79
2021/01/24 06:41:03;;;;;;;9.75;6.80;;;;;;;1.47;95.12;98233.78;4937476;29;20052;-80
2021/01/24 06:43:51;;;;;;;7.80;5.47;;;;;;;1.55;94.70;98242.97;4936706;29;20067;-80
2021/01/24 06:46:21;;;;;;;9.50;5.90;;;;;;;1.49;95.14;98242.38;4913865;29;20059;-81
2021/01/24 06:48:49;;;;;;;8.68;6.00;;;;;;;1.51;94.32;98244.00;4926846;29;20127;-81
2021/01/24 06:51:32;;;;;;;9.00;5.95;;;;;;;1.50;93.76;98252.75;4934902;29;20047;-82
2021/01/24 06:54:00;;;;;;;10.20;6.53;;;;;;;1.45;94.32;98254.69;4913705;29;20042;-81
2021/01/24 06:56:41;;;;;;;11.02;6.40;;;;;;;1.48;94.35;98265.00;4930409;29;20044;-81
2021/01/24 06:59:08;;;;;;;8.80;6.63;;;;;;;1.48;93.90;98262.41;4920488;29;20047;-80
2021/01/24 07:01:42;;;;;;;10.13;6.47;;;;;;;1.47;94.59;98272.88;4936889;28;20060;-82
2021/01/24 07:04:21;;;;;;;11.85;6.47;;;;;;;1.51;94.23;98277.06;4921151;29;20040;-82
2021/01/24 07:06:53;;;;;;;11.00;6.72;;;;;;;1.45;94.40;98279.94;4920925;29;20056;-80
2021/01/24 07:09:38;;;;;;;10.13;6.65;;;;;;;1.45;94.36;98287.75;4933071;29;20131;-80
2021/01/24 07:12:05;;;;;;;10.40;6.55;;;;;;;1.47;94.88;98292.00;4927279;29;20052;-80
2021/01/24 07:14:31;;;;;;;9.95;6.40;;;;;;;1.50;94.51;98294.47;4935117;29;20051;-82
2021/01/24 07:17:12;;;;;;;10.98;7.03;;;;;;;1.46;94.16;98300.72;4923247;29;20036;-82
2021/01/24 07:19:52;;;;;;;10.68;6.40;;;;;;;1.53;94.10;98303.94;4934003;29;20096;-79
2021/01/24 07:22:26;;;;;;;10.95;6.93;;;;;;;1.49;94.10;98307.59;4932547;29;20059;-79
2021/01/24 07:24:53;;;;;;;14.48;7.22;;;;;;;1.51;94.76;98311.81;4934702;29;20079;-80
2021/01/24 07:27:22;;;;;;;12.15;7.68;;;;;;;1.53;94.13;98309.16;4932688;29;20069;-82
2021/01/24 07:29:49;;;;;;;15.80;6.75;;;;;;;1.57;94.17;98319.38;4918793;29;20044;-82
2021/01/24 07:32:18;;;;;;;10.50;6.82;;;;;;;1.55;94.00;98326.44;4923532;29;20036;-81
2021/01/24 07:34:46;;;;;;;12.40;7.95;;;;;;;1.55;93.86;98323.81;4929783;29;20076;-82
2021/01/24 07:37:13;;;;;;;11.82;6.97;;;;;;;1.60;93.15;98321.84;4937552;28;20042;-83
2021/01/24 07:39:47;;;;;;;12.25;7.53;;;;;;;1.57;93.55;98329.81;4942201;28;20024;-81
2021/01/24 07:42:15;;;;;;;12.38;7.55;;;;;;;1.52;93.35;98334.38;4939750;29;20036;-82
2021/01/24 07:44:42;;;;;;;14.05;7.78;;;;;;;1.53;94.04;98330.88;4930468;29;20040;-82
2021/01/24 07:47:15;;;;;;;12.10;7.18;;;;;;;1.50;93.84;98336.22;4921806;29;20048;-81
2021/01/24 07:49:41;;;;;;;11.48;7.35;;;;;;;1.47;94.28;98341.56;4931095;29;20067;-83
2021/01/24 07:52:08;;;;;;;11.77;7.57;;;;;;;1.44;94.38;98344.28;4941245;29;20063;-82
2021/01/24 07:54:36;;;;;;;12.13;6.88;;;;;;;1.42;94.55;98348.72;4925012;29;20111;-79
2021/01/24 07:57:05;;;;;;;11.45;7.20;;;;;;;1.43;94.92;98350.41;4925298;29;20071;-83
2021/01/24 07:59:33;;;;;;;12.93;6.72;;;;;;;1.44;94.71;98352.09;4924324;29;20036;-81
2021/01/24 08:01:59;;;;;;;9.60;6.03;;;;;;;1.40;94.78;98350.56;4940767;29;20047;-80
2021/01/24 08:04:26;;;;;;;9.60;6.20;;;;;;;1.32;94.74;98355.25;4920599;29;20433;-80
2021/01/24 08:06:53;;;;;;;11.15;6.30;;;;;;;1.34;95.34;98371.69;4919842;29;20120;-80
2021/01/24 08:09:19;;;;;;;11.38;6.28;;;;;;;1.28;95.29;98364.09;4935550;29;20059;-80
2021/01/24 08:11:46;;;;;;;12.70;7.00;;;;;;;1.26;95.04;98373.78;4933075;29;20048;-81
2021/01/24 08:14:13;;;;;;;10.13;5.93;;;;;;;1.22;95.56;98388.69;4915090;29;20477;-80
2021/01/24 08:16:47;;;;;;;11.10;5.95;;;;;;;1.26;96.07;98378.97;4911996;29;20052;-82
2021/01/24 08:19:17;;;;;;;9.48;5.70;;;;;;;1.32;95.23;98394.34;4934006;29;20043;-81
2021/01/24 08:21:44;;;;;;;9.95;6.75;;;;;;;1.38;95.28;98389.75;4929440;29;20135;-81
2021/01/24 08:24:10;;;;;;;10.40;6.40;;;;;;;1.34;95.08;98393.38;4907046;29;20052;-81
2021/01/24 08:26:37;;;;;;;9.32;6.43;;;;;;;1.32;95.13;98394.34;4927257;29;20052;-80
2021/01/24 08:29:05;;;;;;;11.15;6.82;;;;;;;1.57;97.80;98402.03;4938848;29;20066;-80
2021/01/24 08:31:33;;;;;;;11.90;6.85;;;;;;;1.69;98.45;98409.31;4904374;29;20487;-81
2021/01/24 08:34:00;;;;;;;12.50;7.55;;;;;;;1.57;96.93;98407.22;4926314;29;20155;-80
2021/01/24 08:36:29;;;;;;;11.13;6.63;;;;;;;1.49;96.15;98411.91;4901946;29;20084;-81
2021/01/24 08:38:58;;;;;;;8.98;6.40;;;;;;;1.44;95.71;98414.69;4919580;29;20059;-80
2021/01/24 08:41:36;;;;;;;9.32;6.00;;;;;;;1.43;94.78;98420.81;4917978;29;20049;-79
2021/01/24 08:44:07;;;;;;;8.63;6.03;;;;;;;1.46;94.47;98428.53;4896052;29;20040;-81
2021/01/24 08:46:40;;;;;;;8.85;6.53;;;;;;;1.42;94.27;98427.81;4908382;29;20111;-79
2021/01/24 08:49:09;;;;;;;9.75;6.45;;;;;;;1.35;94.15;98430.75;4901373;29;20412;-79
2021/01/24 08:51:54;;;;;;;10.48;6.65;;;;;;;1.25;94.40;98442.47;4920519;29;20048;-80
2021/01/24 08:54:24;;;;;;;8.45;5.97;;;;;;;1.20;94.62;98450.47;4900368;29;20123;-80
2021/01/24 08:57:05;;;;;;;12.75;6.25;;;;;;;1.25;95.31;98456.34;4919689;29;20052;-79
2021/01/24 08:59:31;;;;;;;8.60;5.82;;;;;;;1.21;94.93;98456.53;4914063;29;20066;-80
2021/01/24 09:01:58;;;;;;;10.32;6.00;;;;;;;1.15;95.12;98459.38;4913987;29;20122;-81
2021/01/24 09:04:30;;;;;;;12.13;6.93;;;;;;;1.13;95.31;98472.47;4920263;29;20080;-81
2021/01/24 09:07:04;;;;;;;8.95;5.65;;;;;;;1.11;95.57;98468.22;4899936;29;20048;-82
2021/01/24 09:09:32;;;;;;;9.95;5.55;;;;;;;1.17;95.34;98475.81;4930489;29;20052;-81
2021/01/24 09:11:59;;;;;;;9.80;6.03;;;;;;;1.18;95.04;98474.91;4920771;29;20058;-81
2021/01/24 09:14:26;;;;;;;7.70;5.45;;;;;;;1.17;95.10;98481.00;4911889;29;20048;-80
2021/01/24 09:17:00;;;;;;;8.85;6.07;;;;;;;1.13;95.37;98487.25;4912450;29;20059;-79
2021/01/24 09:19:27;;;;;;;7.82;5.15;;;;;;;1.14;95.70;98499.38;4927356;29;20055;-82
2021/01/24 09:21:54;;;;;;;7.63;5.25;;;;;;;1.17;96.14;98494.03;4929281;29;20076;-81
2021/01/24 09:24:21;;;;;;;9.40;6.07;;;;;;;1.19;95.74;98495.69;4915225;29;20048;-80
2021/01/24 09:26:48;;;;;;;7.78;5.65;;;;;;;1.23;95.76;98502.50;4926912;29;20059;-79
2021/01/24 09:29:16;;;;;;;9.10;5.75;;;;;;;1.17;95.75;98500.13;4926324;29;20071;-81
2021/01/24 09:31:42;;;;;;;7.43;5.05;;;;;;;1.25;96.14;98508.50;4925143;29;20076;-83
2021/01/24 09:34:09;;;;;;;8.00;5.25;;;;;;;1.26;95.66;98514.56;4929230;29;20114;-80
2021/01/24 09:36:36;;;;;;;6.35;4.55;;;;;;;1.29;95.42;98522.25;4924704;29;20056;-80
2021/01/24 09:39:04;;;;;;;8.80;4.50;;;;;;;1.26;95.77;98520.59;4922556;29;20396;-82
2021/01/24 09:41:31;;;;;;;6.38;4.28;;;;;;;1.31;95.25;98538.69;4915824;29;20120;-82
2021/01/24 09:43:57;;;;;;;5.63;4.32;;;;;;;1.33;95.19;98529.03;4900106;29;20056;-81
2021/01/24 09:46:24;;;;;;;6.25;4.30;;;;;;;1.35;95.29;98542.88;4919154;29;20051;-81
2021/01/24 09:48:51;;;;;;;5.22;3.97;;;;;;;1.36;95.41;98550.63;4911863;29;20060;-80
2021/01/24 09:51:17;;;;;;;6.35;4.03;;;;;;;1.35;95.11;98550.69;4921164;29;20116;-80
2021/01/24 09:53:49;;;;;;;6.65;4.25;;;;;;;1.35;95.88;98541.13;4904623;29;20489;-81
2021/01/24 09:56:16;;;;;;;5.30;3.97;;;;;;;1.32;95.48;98558.63;4930903;29;20135;-82
2021/01/24 09:58:42;;;;;;;5.05;4.03;;;;;;;1.34;95.91;98567.25;4922201;29;20446;-82
2021/01/24 10:01:09;;;;;;;6.07;3.75;;;;;;;1.39;95.92;98570.53;4925548;29;20492;-80
2021/01/24 10:03:36;;;;;;;6.25;4.00;;;;;;;1.40;95.37;98565.25;4915116;29;20043;-81
2021/01/24 10:06:04;;;;;;;7.88;4.57;;;;;;;1.40;95.49;98580.06;4933785;29;20137;-80
2021/01/24 10:08:32;;;;;;;5.90;4.22;;;;;;;1.41;95.45;98581.75;4920467;29;20526;-81
2021/01/24 10:10:59;;;;;;;5.57;4.00;;;;;;;1.43;95.54;98587.75;4918697;29;20474;-81
2021/01/24 10:13:26;;;;;;;7.43;4.53;;;;;;;1.44;95.67;98586.84;4900355;29;20079;-81
2021/01/24 10:15:53;;;;;;;5.28;3.70;;;;;;;1.49;95.66;98592.72;4906913;29;20052;-79
2021/01/24 10:18:20;;;;;;;4.10;3.30;;;;;;;1.49;95.66;98595.34;4924405;29;20048;-80
2021/01/24 10:20:47;;;;;;;3.63;2.22;;;;;;;1.53;95.74;98598.69;4903797;29;20052;-80
2021/01/24 10:23:21;;;;;;;2.90;2.08;;;;;;;1.53;95.70;98609.13;4922964;29;20066;-81
2021/01/24 10:25:52;;;;;;;3.25;2.28;;;;;;;1.52;95.60;98607.41;4906210;29;20386;-84
2021/01/24 10:28:20;;;;;;;3.33;2.35;;;;;;;1.57;95.72;98614.16;4906714;29;20056;-83
2021/01/24 10:30:52;;;;;;;2.92;2.28;;;;;;;1.60;95.75;98621.84;4905251;29;20061;-82
2021/01/24 10:33:19;;;;;;;2.67;2.00;;;;;;;1.63;95.62;98626.94;4912670;29;20052;-83
2021/01/24 10:35:46;;;;;;;3.42;1.85;;;;;;;1.73;95.69;98628.28;4928957;29;20124;-82
2021/01/24 10:38:13;;;;;;;2.45;2.00;;;;;;;1.79;95.16;98634.19;4933898;29;20051;-83
2021/01/24 10:40:42;;;;;;;2.33;1.85;;;;;;;1.83;94.81;98636.63;4902869;29;20057;-82
2021/01/24 10:43:09;;;;;;;3.20;2.10;;;;;;;1.87;94.76;98658.22;4919385;29;20137;-84
2021/01/24 10:45:37;;;;;;;2.53;1.98;;;;;;;1.86;93.64;98641.72;4916420;29;20045;-84
2021/01/24 10:48:06;;;;;;;2.97;2.47;;;;;;;1.88;94.39;98654.72;4917556;29;20067;-84
2021/01/24 10:50:35;;;;;;;4.97;2.40;;;;;;;1.92;94.69;98658.88;4921272;29;20059;-83
2021/01/24 10:53:05;;;;;;;3.05;2.40;;;;;;;1.97;93.89;98657.78;4918452;29;20056;-83
2021/01/24 10:55:33;;;;;;;3.53;2.58;;;;;;;1.98;93.63;98659.50;4918147;29;20083;-85
2021/01/24 10:58:00;;;;;;;4.38;2.60;;;;;;;2.00;93.71;98659.44;4921051;29;20055;-88
2021/01/24 11:00:27;;;;;;;3.72;2.72;;;;;;;2.05;92.94;98670.53;4921352;29;20066;-81
2021/01/24 11:02:55;;;;;;;2.38;1.80;;;;;;;2.05;92.94;98666.16;4918849;29;20079;-81
2021/01/24 11:05:22;;;;;;;2.25;2.05;;;;;;;2.06;92.50;98677.44;4919718;29;20130;-87
2021/01/24 11:07:49;;;;;;;3.03;2.10;;;;;;;2.06;92.85;98677.44;4918055;29;20078;-85
2021/01/24 11:10:17;;;;;;;3.72;1.88;;;;;;;2.09;91.79;98672.09;4913304;29;20453;-86
2021/01/24 11:12:44;;;;;;;2.55;2.35;;;;;;;2.11;92.00;98678.97;4919410;29;20052;-86
2021/01/24 11:15:11;;;;;;;3.63;2.50;;;;;;;2.17;91.98;98682.25;4908627;29;20466;-85
2021/01/24 11:17:40;;;;;;;4.68;2.75;;;;;;;2.20;91.77;98676.91;4928134;29;20079;-87
2021/01/24 11:20:10;;;;;;;4.22;2.42;;;;;;;2.23;91.64;98685.44;4927785;29;20065;-86
2021/01/24 11:22:37;;;;;;;2.97;2.25;;;;;;;2.23;91.67;98687.22;4921967;29;20056;-83
2021/01/24 11:25:06;;;;;;;5.40;2.60;;;;;;;2.25;90.70;98694.06;4919272;29;20611;-82
2021/01/24 11:27:34;;;;;;;3.03;2.30;;;;;;;2.34;90.47;98698.09;4907979;29;20084;-86
2021/01/24 11:30:07;;;;;;;4.13;2.72;;;;;;;2.34;90.36;98704.19;4935721;29;20052;-85
2021/01/24 11:32:33;;;;;;;3.50;2.25;;;;;;;2.38;89.61;98702.25;4919052;29;20055;-85
2021/01/24 11:35:09;;;;;;;3.63;2.90;;;;;;;2.41;90.07;98712.59;4913554;29;20104;-84
2021/01/24 11:37:37;;;;;;;4.22;2.58;;;;;;;2.43;89.45;98709.00;4924279;29;20062;-84
2021/01/24 11:40:05;;;;;;;3.53;2.60;;;;;;;2.54;87.80;98716.41;4923305;29;20076;-84
2021/01/24 11:42:32;;;;;;;4.63;3.42;;;;;;;2.52;88.86;98722.63;4927965;29;20060;-84
2021/01/24 11:44:59;;;;;;;3.90;3.00;;;;;;;2.54;88.83;98723.38;4924772;29;20421;-84
2021/01/24 11:47:27;;;;;;;4.68;3.55;;;;;;;2.57;88.52;98733.72;4914344;29;20158;-83